Terminal Aerodrome Forecast
Issued by NWS Cleveland, OH

Home | Current Version | Previous Version | Graphics & Text | Print | Product List | Glossary On
Versions: 1 2 3 4 5 6 7 8 9 10 11 12 13 14 15 16 17 18
000
FTUS41 KCLE 202300
TAFMFD
TAF
KMFD 202330Z 2100/2124 VRB04KT P6SM SCT045
     FM210200 00000KT P6SM SCT250
     FM210800 00000KT 4SM BR SCT250
     FM211000 00000KT 3/4SM BR SCT250
     FM211400 00000KT P6SM SCT250
     FM211600 VRB03KT P6SM SCT035=

USA.gov is the U.S. government's official web portal to all federal, state and local government web resources and services.